sensor_id;sensor_type;location;lat;lon;timestamp;P1;durP1;ratioP1;P2;durP2;ratioP2
28447;SDS011;15675;52.870;-1.416;2023-06-22T00:01:54;10.43;;;3.92;;
28447;SDS011;15675;52.870;-1.416;2023-06-22T00:04:20;10.65;;;4.75;;
28447;SDS011;15675;52.870;-1.416;2023-06-22T00:06:46;8.05;;;4.47;;
28447;SDS011;15675;52.870;-1.416;2023-06-22T00:09:11;11.65;;;4.38;;
28447;SDS011;15675;52.870;-1.416;2023-06-22T00:11:37;8.30;;;4.35;;
28447;SDS011;15675;52.870;-1.416;2023-06-22T00:14:03;7.85;;;4.20;;
28447;SDS011;15675;52.870;-1.416;2023-06-22T00:16:29;10.77;;;4.80;;
28447;SDS011;15675;52.870;-1.416;2023-06-22T00:18:56;7.43;;;4.03;;
28447;SDS011;15675;52.870;-1.416;2023-06-22T00:21:28;7.65;;;3.85;;
28447;SDS011;15675;52.870;-1.416;2023-06-22T00:23:55;11.05;;;4.00;;
28447;SDS011;15675;52.870;-1.416;2023-06-22T00:26:20;7.68;;;3.35;;
28447;SDS011;15675;52.870;-1.416;2023-06-22T00:28:46;5.32;;;3.08;;
28447;SDS011;15675;52.870;-1.416;2023-06-22T00:31:12;7.38;;;3.67;;
28447;SDS011;15675;52.870;-1.416;2023-06-22T00:33:38;8.13;;;3.72;;
28447;SDS011;15675;52.870;-1.416;2023-06-22T00:36:04;13.60;;;4.25;;
28447;SDS011;15675;52.870;-1.416;2023-06-22T00:38:31;6.20;;;3.60;;
28447;SDS011;15675;52.870;-1.416;2023-06-22T00:40:56;8.00;;;4.20;;
28447;SDS011;15675;52.870;-1.416;2023-06-22T00:43:22;10.50;;;4.95;;
28447;SDS011;15675;52.870;-1.416;2023-06-22T00:45:48;7.75;;;4.60;;
28447;SDS011;15675;52.870;-1.416;2023-06-22T00:48:13;11.32;;;5.22;;
28447;SDS011;15675;52.870;-1.416;2023-06-22T00:50:40;8.50;;;5.38;;
28447;SDS011;15675;52.870;-1.416;2023-06-22T00:53:06;9.32;;;5.15;;
28447;SDS011;15675;52.870;-1.416;2023-06-22T00:55:34;12.95;;;4.32;;
28447;SDS011;15675;52.870;-1.416;2023-06-22T00:58:06;9.60;;;4.50;;
28447;SDS011;15675;52.870;-1.416;2023-06-22T01:00:35;13.32;;;4.78;;
28447;SDS011;15675;52.870;-1.416;2023-06-22T01:03:01;19.70;;;5.63;;
28447;SDS011;15675;52.870;-1.416;2023-06-22T01:05:27;10.15;;;5.50;;
28447;SDS011;15675;52.870;-1.416;2023-06-22T01:10:53;15.68;;;5.25;;
28447;SDS011;15675;52.870;-1.416;2023-06-22T01:13:25;11.25;;;5.65;;
28447;SDS011;15675;52.870;-1.416;2023-06-22T01:16:05;14.82;;;6.30;;
28447;SDS011;15675;52.870;-1.416;2023-06-22T01:18:42;15.80;;;5.60;;
28447;SDS011;15675;52.870;-1.416;2023-06-22T01:21:12;9.27;;;4.57;;
28447;SDS011;15675;52.870;-1.416;2023-06-22T01:28:54;15.85;;;8.38;;
28447;SDS011;15675;52.870;-1.416;2023-06-22T01:31:24;14.43;;;8.27;;
28447;SDS011;15675;52.870;-1.416;2023-06-22T01:33:53;15.07;;;8.15;;
28447;SDS011;15675;52.870;-1.416;2023-06-22T01:36:22;17.13;;;8.40;;
28447;SDS011;15675;52.870;-1.416;2023-06-22T01:38:49;13.93;;;8.00;;
28447;SDS011;15675;52.870;-1.416;2023-06-22T01:41:16;15.75;;;8.20;;
28447;SDS011;15675;52.870;-1.416;2023-06-22T01:43:42;12.57;;;7.47;;
28447;SDS011;15675;52.870;-1.416;2023-06-22T01:46:09;15.27;;;7.97;;
28447;SDS011;15675;52.870;-1.416;2023-06-22T01:48:36;15.30;;;7.75;;
28447;SDS011;15675;52.870;-1.416;2023-06-22T01:51:04;17.17;;;8.50;;
28447;SDS011;15675;52.870;-1.416;2023-06-22T01:53:29;14.30;;;8.25;;
28447;SDS011;15675;52.870;-1.416;2023-06-22T01:55:55;19.10;;;8.25;;
28447;SDS011;15675;52.870;-1.416;2023-06-22T01:58:23;24.92;;;11.10;;
28447;SDS011;15675;52.870;-1.416;2023-06-22T02:01:10;36.95;;;16.67;;
28447;SDS011;15675;52.870;-1.416;2023-06-22T02:03:44;28.63;;;12.23;;
28447;SDS011;15675;52.870;-1.416;2023-06-22T02:06:17;21.95;;;11.13;;
28447;SDS011;15675;52.870;-1.416;2023-06-22T02:08:53;23.02;;;11.05;;
28447;SDS011;15675;52.870;-1.416;2023-06-22T02:11:22;15.55;;;9.13;;
28447;SDS011;15675;52.870;-1.416;2023-06-22T02:13:52;17.33;;;9.07;;
28447;SDS011;15675;52.870;-1.416;2023-06-22T02:16:18;17.27;;;8.32;;
28447;SDS011;15675;52.870;-1.416;2023-06-22T02:18:48;19.92;;;9.55;;
28447;SDS011;15675;52.870;-1.416;2023-06-22T02:21:20;16.77;;;8.38;;
28447;SDS011;15675;52.870;-1.416;2023-06-22T02:23:46;14.25;;;7.63;;
28447;SDS011;15675;52.870;-1.416;2023-06-22T02:26:12;15.55;;;7.55;;
28447;SDS011;15675;52.870;-1.416;2023-06-22T02:28:38;12.25;;;7.40;;
28447;SDS011;15675;52.870;-1.416;2023-06-22T02:31:03;12.77;;;7.60;;
28447;SDS011;15675;52.870;-1.416;2023-06-22T02:33:29;16.52;;;7.82;;
28447;SDS011;15675;52.870;-1.416;2023-06-22T02:35:54;10.10;;;7.03;;
28447;SDS011;15675;52.870;-1.416;2023-06-22T02:38:20;16.33;;;8.25;;
28447;SDS011;15675;52.870;-1.416;2023-06-22T02:40:46;11.95;;;7.38;;
28447;SDS011;15675;52.870;-1.416;2023-06-22T02:43:12;14.63;;;7.28;;
28447;SDS011;15675;52.870;-1.416;2023-06-22T02:45:38;9.25;;;6.57;;
28447;SDS011;15675;52.870;-1.416;2023-06-22T02:48:03;18.42;;;6.72;;
28447;SDS011;15675;52.870;-1.416;2023-06-22T02:50:30;13.18;;;7.28;;
28447;SDS011;15675;52.870;-1.416;2023-06-22T02:52:55;11.95;;;7.60;;
28447;SDS011;15675;52.870;-1.416;2023-06-22T02:55:21;14.20;;;7.43;;
28447;SDS011;15675;52.870;-1.416;2023-06-22T02:57:46;14.05;;;8.35;;
28447;SDS011;15675;52.870;-1.416;2023-06-22T03:00:13;15.40;;;9.35;;
28447;SDS011;15675;52.870;-1.416;2023-06-22T03:02:49;17.13;;;9.48;;
28447;SDS011;15675;52.870;-1.416;2023-06-22T03:05:15;16.90;;;10.57;;
28447;SDS011;15675;52.870;-1.416;2023-06-22T03:07:43;19.48;;;11.98;;
28447;SDS011;15675;52.870;-1.416;2023-06-22T03:10:10;20.52;;;13.57;;
28447;SDS011;15675;52.870;-1.416;2023-06-22T03:12:37;22.73;;;16.85;;
28447;SDS011;15675;52.870;-1.416;2023-06-22T03:15:04;28.17;;;17.08;;
28447;SDS011;15675;52.870;-1.416;2023-06-22T03:17:34;25.58;;;18.73;;
28447;SDS011;15675;52.870;-1.416;2023-06-22T03:20:01;23.45;;;15.60;;
28447;SDS011;15675;52.870;-1.416;2023-06-22T03:22:34;19.88;;;12.80;;
28447;SDS011;15675;52.870;-1.416;2023-06-22T03:25:02;12.85;;;8.68;;
28447;SDS011;15675;52.870;-1.416;2023-06-22T03:27:29;15.60;;;8.55;;
28447;SDS011;15675;52.870;-1.416;2023-06-22T03:29:56;14.23;;;8.75;;
28447;SDS011;15675;52.870;-1.416;2023-06-22T03:32:22;13.77;;;9.50;;
28447;SDS011;15675;52.870;-1.416;2023-06-22T03:34:47;15.18;;;8.98;;
28447;SDS011;15675;52.870;-1.416;2023-06-22T03:37:13;14.05;;;8.05;;
28447;SDS011;15675;52.870;-1.416;2023-06-22T03:39:40;13.30;;;8.32;;
28447;SDS011;15675;52.870;-1.416;2023-06-22T03:42:06;14.88;;;8.73;;
28447;SDS011;15675;52.870;-1.416;2023-06-22T03:44:35;14.05;;;9.00;;
28447;SDS011;15675;52.870;-1.416;2023-06-22T03:47:02;16.05;;;9.95;;
28447;SDS011;15675;52.870;-1.416;2023-06-22T03:49:29;15.43;;;10.27;;
28447;SDS011;15675;52.870;-1.416;2023-06-22T03:51:55;12.95;;;8.90;;
28447;SDS011;15675;52.870;-1.416;2023-06-22T03:54:20;18.25;;;9.80;;
28447;SDS011;15675;52.870;-1.416;2023-06-22T03:56:46;14.93;;;10.02;;
28447;SDS011;15675;52.870;-1.416;2023-06-22T03:59:11;23.50;;;15.45;;
28447;SDS011;15675;52.870;-1.416;2023-06-22T04:01:37;18.40;;;12.10;;
28447;SDS011;15675;52.870;-1.416;2023-06-22T04:04:02;18.00;;;10.00;;
28447;SDS011;15675;52.870;-1.416;2023-06-22T04:06:28;13.75;;;9.45;;
28447;SDS011;15675;52.870;-1.416;2023-06-22T04:08:53;13.48;;;8.88;;
28447;SDS011;15675;52.870;-1.416;2023-06-22T04:11:19;13.60;;;8.35;;
28447;SDS011;15675;52.870;-1.416;2023-06-22T04:13:45;11.95;;;7.38;;
28447;SDS011;15675;52.870;-1.416;2023-06-22T04:16:10;9.18;;;6.22;;
28447;SDS011;15675;52.870;-1.416;2023-06-22T04:18:36;9.68;;;5.82;;
28447;SDS011;15675;52.870;-1.416;2023-06-22T04:21:02;10.35;;;6.13;;
28447;SDS011;15675;52.870;-1.416;2023-06-22T04:23:27;11.70;;;6.63;;
28447;SDS011;15675;52.870;-1.416;2023-06-22T04:25:53;8.40;;;5.70;;
28447;SDS011;15675;52.870;-1.416;2023-06-22T04:28:18;11.27;;;6.60;;
28447;SDS011;15675;52.870;-1.416;2023-06-22T04:30:44;9.63;;;6.05;;
28447;SDS011;15675;52.870;-1.416;2023-06-22T04:33:13;15.27;;;6.13;;
28447;SDS011;15675;52.870;-1.416;2023-06-22T04:35:40;16.00;;;6.25;;
28447;SDS011;15675;52.870;-1.416;2023-06-22T04:38:08;10.25;;;5.25;;
28447;SDS011;15675;52.870;-1.416;2023-06-22T04:40:34;9.95;;;6.45;;
28447;SDS011;15675;52.870;-1.416;2023-06-22T04:42:59;17.23;;;7.40;;
28447;SDS011;15675;52.870;-1.416;2023-06-22T04:45:27;12.50;;;6.80;;
28447;SDS011;15675;52.870;-1.416;2023-06-22T04:47:56;12.18;;;7.28;;
28447;SDS011;15675;52.870;-1.416;2023-06-22T04:50:22;13.93;;;8.48;;
28447;SDS011;15675;52.870;-1.416;2023-06-22T04:52:49;15.68;;;7.63;;
28447;SDS011;15675;52.870;-1.416;2023-06-22T04:55:15;11.32;;;7.38;;
28447;SDS011;15675;52.870;-1.416;2023-06-22T04:57:48;11.60;;;7.32;;
28447;SDS011;15675;52.870;-1.416;2023-06-22T05:00:14;12.68;;;7.80;;
28447;SDS011;15675;52.870;-1.416;2023-06-22T05:02:42;13.93;;;8.00;;
28447;SDS011;15675;52.870;-1.416;2023-06-22T05:05:09;12.23;;;8.07;;
28447;SDS011;15675;52.870;-1.416;2023-06-22T05:07:40;17.50;;;7.97;;
28447;SDS011;15675;52.870;-1.416;2023-06-22T05:10:10;12.57;;;7.45;;
28447;SDS011;15675;52.870;-1.416;2023-06-22T05:12:38;15.85;;;7.97;;
28447;SDS011;15675;52.870;-1.416;2023-06-22T05:15:05;11.80;;;7.40;;
28447;SDS011;15675;52.870;-1.416;2023-06-22T05:17:32;13.57;;;7.82;;
28447;SDS011;15675;52.870;-1.416;2023-06-22T05:19:57;15.15;;;8.52;;
28447;SDS011;15675;52.870;-1.416;2023-06-22T05:22:23;15.48;;;8.40;;
28447;SDS011;15675;52.870;-1.416;2023-06-22T05:24:48;15.68;;;8.15;;
28447;SDS011;15675;52.870;-1.416;2023-06-22T05:27:14;18.55;;;8.07;;
28447;SDS011;15675;52.870;-1.416;2023-06-22T05:29:40;13.35;;;8.95;;
28447;SDS011;15675;52.870;-1.416;2023-06-22T05:32:07;15.18;;;9.00;;
28447;SDS011;15675;52.870;-1.416;2023-06-22T05:34:33;11.85;;;8.10;;
28447;SDS011;15675;52.870;-1.416;2023-06-22T05:36:59;11.57;;;7.82;;
28447;SDS011;15675;52.870;-1.416;2023-06-22T05:39:25;11.88;;;8.18;;
28447;SDS011;15675;52.870;-1.416;2023-06-22T05:41:51;14.18;;;7.65;;
28447;SDS011;15675;52.870;-1.416;2023-06-22T05:44:17;11.95;;;9.05;;
28447;SDS011;15675;52.870;-1.416;2023-06-22T05:46:44;12.25;;;7.75;;
28447;SDS011;15675;52.870;-1.416;2023-06-22T05:49:11;14.95;;;8.60;;
28447;SDS011;15675;52.870;-1.416;2023-06-22T05:51:37;14.95;;;8.25;;
28447;SDS011;15675;52.870;-1.416;2023-06-22T05:54:03;14.20;;;7.90;;
28447;SDS011;15675;52.870;-1.416;2023-06-22T05:56:28;15.32;;;8.05;;
28447;SDS011;15675;52.870;-1.416;2023-06-22T05:58:54;14.82;;;8.50;;
28447;SDS011;15675;52.870;-1.416;2023-06-22T06:01:19;15.43;;;7.93;;
28447;SDS011;15675;52.870;-1.416;2023-06-22T06:03:45;16.27;;;7.95;;
28447;SDS011;15675;52.870;-1.416;2023-06-22T06:06:11;11.93;;;8.20;;
28447;SDS011;15675;52.870;-1.416;2023-06-22T06:08:37;11.75;;;7.47;;
28447;SDS011;15675;52.870;-1.416;2023-06-22T06:11:04;14.82;;;8.15;;
28447;SDS011;15675;52.870;-1.416;2023-06-22T06:13:29;11.77;;;7.30;;
28447;SDS011;15675;52.870;-1.416;2023-06-22T06:15:55;14.13;;;8.35;;
28447;SDS011;15675;52.870;-1.416;2023-06-22T06:18:22;15.02;;;7.45;;
28447;SDS011;15675;52.870;-1.416;2023-06-22T06:20:48;13.75;;;7.70;;
28447;SDS011;15675;52.870;-1.416;2023-06-22T06:23:13;12.50;;;7.25;;
28447;SDS011;15675;52.870;-1.416;2023-06-22T06:25:39;18.10;;;7.97;;
28447;SDS011;15675;52.870;-1.416;2023-06-22T06:28:05;12.75;;;8.63;;
28447;SDS011;15675;52.870;-1.416;2023-06-22T06:30:30;15.27;;;7.95;;
28447;SDS011;15675;52.870;-1.416;2023-06-22T06:32:56;13.60;;;7.88;;
28447;SDS011;15675;52.870;-1.416;2023-06-22T06:35:22;14.85;;;7.85;;
28447;SDS011;15675;52.870;-1.416;2023-06-22T06:37:48;11.20;;;7.22;;
28447;SDS011;15675;52.870;-1.416;2023-06-22T06:40:15;15.38;;;7.20;;
28447;SDS011;15675;52.870;-1.416;2023-06-22T06:42:43;11.45;;;7.20;;
28447;SDS011;15675;52.870;-1.416;2023-06-22T06:45:15;13.60;;;7.00;;
28447;SDS011;15675;52.870;-1.416;2023-06-22T06:47:41;15.98;;;7.07;;
28447;SDS011;15675;52.870;-1.416;2023-06-22T06:50:07;16.90;;;7.03;;
28447;SDS011;15675;52.870;-1.416;2023-06-22T06:52:34;12.52;;;6.93;;
28447;SDS011;15675;52.870;-1.416;2023-06-22T06:54:59;12.75;;;6.65;;
28447;SDS011;15675;52.870;-1.416;2023-06-22T06:57:25;13.30;;;7.55;;
28447;SDS011;15675;52.870;-1.416;2023-06-22T06:59:57;11.25;;;6.80;;
28447;SDS011;15675;52.870;-1.416;2023-06-22T07:02:23;14.75;;;6.32;;
28447;SDS011;15675;52.870;-1.416;2023-06-22T07:04:49;14.13;;;7.25;;
28447;SDS011;15675;52.870;-1.416;2023-06-22T07:07:15;11.30;;;5.85;;
28447;SDS011;15675;52.870;-1.416;2023-06-22T07:09:40;11.77;;;6.68;;
28447;SDS011;15675;52.870;-1.416;2023-06-22T07:12:06;11.38;;;6.65;;
28447;SDS011;15675;52.870;-1.416;2023-06-22T07:14:32;10.20;;;6.40;;
28447;SDS011;15675;52.870;-1.416;2023-06-22T07:16:57;11.98;;;6.13;;
28447;SDS011;15675;52.870;-1.416;2023-06-22T07:19:24;9.13;;;5.93;;
28447;SDS011;15675;52.870;-1.416;2023-06-22T07:21:53;10.57;;;6.05;;
28447;SDS011;15675;52.870;-1.416;2023-06-22T07:24:20;12.23;;;5.85;;
28447;SDS011;15675;52.870;-1.416;2023-06-22T07:26:49;13.18;;;6.65;;
28447;SDS011;15675;52.870;-1.416;2023-06-22T07:29:16;10.98;;;6.00;;
28447;SDS011;15675;52.870;-1.416;2023-06-22T07:31:42;10.25;;;5.80;;
28447;SDS011;15675;52.870;-1.416;2023-06-22T07:34:08;7.72;;;5.75;;
28447;SDS011;15675;52.870;-1.416;2023-06-22T07:36:34;10.57;;;5.57;;
28447;SDS011;15675;52.870;-1.416;2023-06-22T07:39:01;11.85;;;5.28;;
28447;SDS011;15675;52.870;-1.416;2023-06-22T07:41:30;7.05;;;4.72;;
28447;SDS011;15675;52.870;-1.416;2023-06-22T07:43:56;10.75;;;5.35;;
28447;SDS011;15675;52.870;-1.416;2023-06-22T07:46:22;13.52;;;5.15;;
28447;SDS011;15675;52.870;-1.416;2023-06-22T07:48:48;8.13;;;4.85;;
28447;SDS011;15675;52.870;-1.416;2023-06-22T07:51:13;7.53;;;5.40;;
28447;SDS011;15675;52.870;-1.416;2023-06-22T07:53:43;9.45;;;4.97;;
28447;SDS011;15675;52.870;-1.416;2023-06-22T07:56:12;9.50;;;4.80;;
28447;SDS011;15675;52.870;-1.416;2023-06-22T07:58:38;8.75;;;4.15;;
28447;SDS011;15675;52.870;-1.416;2023-06-22T08:01:04;8.15;;;4.30;;
28447;SDS011;15675;52.870;-1.416;2023-06-22T08:03:30;8.25;;;4.40;;
28447;SDS011;15675;52.870;-1.416;2023-06-22T08:05:55;11.75;;;4.80;;
28447;SDS011;15675;52.870;-1.416;2023-06-22T08:08:21;8.73;;;5.03;;
28447;SDS011;15675;52.870;-1.416;2023-06-22T08:10:46;11.02;;;4.85;;
28447;SDS011;15675;52.870;-1.416;2023-06-22T08:13:12;9.93;;;4.93;;
28447;SDS011;15675;52.870;-1.416;2023-06-22T08:15:37;8.10;;;4.20;;
28447;SDS011;15675;52.870;-1.416;2023-06-22T08:18:03;11.13;;;4.93;;
28447;SDS011;15675;52.870;-1.416;2023-06-22T08:20:29;7.72;;;4.10;;
28447;SDS011;15675;52.870;-1.416;2023-06-22T08:22:55;11.02;;;4.20;;
28447;SDS011;15675;52.870;-1.416;2023-06-22T08:25:22;7.22;;;3.83;;
28447;SDS011;15675;52.870;-1.416;2023-06-22T08:27:48;5.07;;;3.30;;
28447;SDS011;15675;52.870;-1.416;2023-06-22T08:30:13;6.75;;;3.72;;
28447;SDS011;15675;52.870;-1.416;2023-06-22T08:32:40;5.75;;;3.28;;
28447;SDS011;15675;52.870;-1.416;2023-06-22T08:35:05;6.40;;;3.22;;
28447;SDS011;15675;52.870;-1.416;2023-06-22T08:37:34;8.25;;;3.60;;
28447;SDS011;15675;52.870;-1.416;2023-06-22T08:40:01;5.63;;;3.35;;
28447;SDS011;15675;52.870;-1.416;2023-06-22T08:42:33;9.10;;;3.72;;
28447;SDS011;15675;52.870;-1.416;2023-06-22T08:44:59;7.75;;;3.47;;
28447;SDS011;15675;52.870;-1.416;2023-06-22T08:47:24;10.43;;;4.53;;
28447;SDS011;15675;52.870;-1.416;2023-06-22T08:49:50;6.57;;;3.40;;
28447;SDS011;15675;52.870;-1.416;2023-06-22T08:52:17;5.75;;;3.28;;
28447;SDS011;15675;52.870;-1.416;2023-06-22T08:54:42;4.82;;;3.35;;
28447;SDS011;15675;52.870;-1.416;2023-06-22T08:57:08;4.75;;;3.13;;
28447;SDS011;15675;52.870;-1.416;2023-06-22T08:59:34;6.13;;;4.20;;
28447;SDS011;15675;52.870;-1.416;2023-06-22T09:01:59;5.05;;;3.40;;
28447;SDS011;15675;52.870;-1.416;2023-06-22T09:04:25;6.97;;;3.58;;
28447;SDS011;15675;52.870;-1.416;2023-06-22T09:06:50;5.72;;;3.55;;
28447;SDS011;15675;52.870;-1.416;2023-06-22T09:09:17;4.85;;;3.08;;
28447;SDS011;15675;52.870;-1.416;2023-06-22T09:11:43;7.00;;;3.10;;
28447;SDS011;15675;52.870;-1.416;2023-06-22T09:14:10;7.50;;;4.03;;
28447;SDS011;15675;52.870;-1.416;2023-06-22T09:16:35;8.80;;;3.55;;
28447;SDS011;15675;52.870;-1.416;2023-06-22T09:19:01;7.22;;;3.92;;
28447;SDS011;15675;52.870;-1.416;2023-06-22T09:21:26;5.80;;;3.17;;
28447;SDS011;15675;52.870;-1.416;2023-06-22T09:23:52;5.70;;;3.90;;
28447;SDS011;15675;52.870;-1.416;2023-06-22T09:26:18;7.50;;;3.50;;
28447;SDS011;15675;52.870;-1.416;2023-06-22T09:28:44;10.75;;;3.70;;
28447;SDS011;15675;52.870;-1.416;2023-06-22T09:31:10;9.82;;;4.13;;
28447;SDS011;15675;52.870;-1.416;2023-06-22T09:33:36;11.02;;;4.13;;
28447;SDS011;15675;52.870;-1.416;2023-06-22T09:36:04;7.30;;;4.20;;
28447;SDS011;15675;52.870;-1.416;2023-06-22T09:38:38;7.25;;;3.58;;
28447;SDS011;15675;52.870;-1.416;2023-06-22T09:41:04;5.22;;;3.33;;
28447;SDS011;15675;52.870;-1.416;2023-06-22T09:43:31;6.28;;;3.55;;
28447;SDS011;15675;52.870;-1.416;2023-06-22T09:46:00;8.02;;;3.28;;
28447;SDS011;15675;52.870;-1.416;2023-06-22T09:48:26;5.55;;;3.67;;
28447;SDS011;15675;52.870;-1.416;2023-06-22T09:50:52;6.30;;;3.58;;
28447;SDS011;15675;52.870;-1.416;2023-06-22T09:53:17;8.70;;;4.07;;
28447;SDS011;15675;52.870;-1.416;2023-06-22T09:55:43;7.38;;;4.32;;
28447;SDS011;15675;52.870;-1.416;2023-06-22T09:58:09;6.40;;;4.15;;
28447;SDS011;15675;52.870;-1.416;2023-06-22T10:00:35;6.38;;;3.92;;
28447;SDS011;15675;52.870;-1.416;2023-06-22T10:03:00;8.15;;;4.30;;
28447;SDS011;15675;52.870;-1.416;2023-06-22T10:05:26;7.20;;;4.18;;
28447;SDS011;15675;52.870;-1.416;2023-06-22T10:07:51;7.55;;;3.58;;
28447;SDS011;15675;52.870;-1.416;2023-06-22T10:10:18;7.13;;;4.18;;
28447;SDS011;15675;52.870;-1.416;2023-06-22T10:12:46;6.65;;;4.03;;
28447;SDS011;15675;52.870;-1.416;2023-06-22T10:15:13;5.72;;;3.80;;
28447;SDS011;15675;52.870;-1.416;2023-06-22T10:17:39;6.55;;;4.13;;
28447;SDS011;15675;52.870;-1.416;2023-06-22T10:20:05;7.53;;;3.85;;
28447;SDS011;15675;52.870;-1.416;2023-06-22T10:22:45;7.82;;;4.32;;
28447;SDS011;15675;52.870;-1.416;2023-06-22T10:25:11;9.45;;;4.63;;
28447;SDS011;15675;52.870;-1.416;2023-06-22T10:27:38;9.68;;;4.57;;
28447;SDS011;15675;52.870;-1.416;2023-06-22T10:30:10;10.23;;;4.15;;
28447;SDS011;15675;52.870;-1.416;2023-06-22T10:32:40;7.00;;;4.20;;
28447;SDS011;15675;52.870;-1.416;2023-06-22T10:35:08;7.05;;;4.00;;
28447;SDS011;15675;52.870;-1.416;2023-06-22T10:37:35;6.95;;;4.25;;
28447;SDS011;15675;52.870;-1.416;2023-06-22T10:40:02;7.25;;;4.78;;
28447;SDS011;15675;52.870;-1.416;2023-06-22T10:42:29;5.65;;;4.13;;
28447;SDS011;15675;52.870;-1.416;2023-06-22T10:44:54;8.02;;;4.03;;
28447;SDS011;15675;52.870;-1.416;2023-06-22T10:47:20;8.63;;;4.43;;
28447;SDS011;15675;52.870;-1.416;2023-06-22T10:49:45;8.50;;;4.38;;
28447;SDS011;15675;52.870;-1.416;2023-06-22T10:52:11;8.43;;;4.13;;
28447;SDS011;15675;52.870;-1.416;2023-06-22T10:54:37;7.80;;;4.78;;
28447;SDS011;15675;52.870;-1.416;2023-06-22T10:57:03;7.75;;;4.40;;
28447;SDS011;15675;52.870;-1.416;2023-06-22T10:59:28;8.75;;;5.05;;
28447;SDS011;15675;52.870;-1.416;2023-06-22T11:01:57;8.10;;;5.00;;
28447;SDS011;15675;52.870;-1.416;2023-06-22T11:04:23;8.68;;;4.18;;
28447;SDS011;15675;52.870;-1.416;2023-06-22T11:06:49;7.18;;;4.07;;
28447;SDS011;15675;52.870;-1.416;2023-06-22T11:09:15;6.80;;;3.90;;
28447;SDS011;15675;52.870;-1.416;2023-06-22T11:11:47;5.67;;;3.73;;
28447;SDS011;15675;52.870;-1.416;2023-06-22T11:14:14;7.55;;;3.80;;
28447;SDS011;15675;52.870;-1.416;2023-06-22T11:16:40;9.65;;;4.10;;
28447;SDS011;15675;52.870;-1.416;2023-06-22T11:19:05;8.60;;;3.50;;
28447;SDS011;15675;52.870;-1.416;2023-06-22T11:21:31;6.50;;;4.22;;
28447;SDS011;15675;52.870;-1.416;2023-06-22T11:23:57;6.07;;;3.83;;
28447;SDS011;15675;52.870;-1.416;2023-06-22T11:26:24;5.80;;;3.22;;
28447;SDS011;15675;52.870;-1.416;2023-06-22T11:28:52;6.18;;;3.95;;
28447;SDS011;15675;52.870;-1.416;2023-06-22T11:31:18;7.82;;;3.75;;
28447;SDS011;15675;52.870;-1.416;2023-06-22T11:33:44;6.60;;;3.90;;
28447;SDS011;15675;52.870;-1.416;2023-06-22T11:36:13;8.63;;;3.80;;
28447;SDS011;15675;52.870;-1.416;2023-06-22T11:38:39;7.82;;;4.07;;
28447;SDS011;15675;52.870;-1.416;2023-06-22T11:41:05;9.23;;;4.72;;
28447;SDS011;15675;52.870;-1.416;2023-06-22T11:43:31;8.55;;;4.50;;
28447;SDS011;15675;52.870;-1.416;2023-06-22T11:45:57;6.68;;;4.03;;
28447;SDS011;15675;52.870;-1.416;2023-06-22T11:48:26;6.43;;;3.50;;
28447;SDS011;15675;52.870;-1.416;2023-06-22T11:50:51;6.03;;;3.25;;
28447;SDS011;15675;52.870;-1.416;2023-06-22T11:53:17;4.50;;;3.13;;
28447;SDS011;15675;52.870;-1.416;2023-06-22T11:55:45;6.07;;;3.10;;
28447;SDS011;15675;52.870;-1.416;2023-06-22T11:58:11;6.60;;;3.70;;
28447;SDS011;15675;52.870;-1.416;2023-06-22T12:00:36;6.38;;;2.88;;
28447;SDS011;15675;52.870;-1.416;2023-06-22T12:03:02;4.38;;;3.10;;
28447;SDS011;15675;52.870;-1.416;2023-06-22T12:05:28;4.78;;;2.60;;
28447;SDS011;15675;52.870;-1.416;2023-06-22T12:07:54;5.95;;;3.35;;
28447;SDS011;15675;52.870;-1.416;2023-06-22T12:12:37;5.40;;;3.28;;
28447;SDS011;15675;52.870;-1.416;2023-06-22T12:15:03;6.20;;;3.10;;
28447;SDS011;15675;52.870;-1.416;2023-06-22T12:17:29;4.88;;;2.45;;
28447;SDS011;15675;52.870;-1.416;2023-06-22T12:19:55;5.25;;;2.88;;
28447;SDS011;15675;52.870;-1.416;2023-06-22T12:22:21;7.22;;;3.20;;
28447;SDS011;15675;52.870;-1.416;2023-06-22T12:24:46;8.65;;;2.90;;
28447;SDS011;15675;52.870;-1.416;2023-06-22T12:27:12;4.38;;;2.95;;
28447;SDS011;15675;52.870;-1.416;2023-06-22T12:29:37;8.48;;;2.95;;
28447;SDS011;15675;52.870;-1.416;2023-06-22T12:32:03;6.10;;;3.00;;
28447;SDS011;15675;52.870;-1.416;2023-06-22T12:34:29;5.32;;;2.92;;
28447;SDS011;15675;52.870;-1.416;2023-06-22T12:36:55;6.40;;;2.75;;
28447;SDS011;15675;52.870;-1.416;2023-06-22T12:39:20;4.93;;;3.17;;
28447;SDS011;15675;52.870;-1.416;2023-06-22T12:41:46;6.00;;;3.10;;
28447;SDS011;15675;52.870;-1.416;2023-06-22T12:44:11;6.57;;;2.67;;
28447;SDS011;15675;52.870;-1.416;2023-06-22T12:46:37;5.30;;;2.97;;
28447;SDS011;15675;52.870;-1.416;2023-06-22T12:49:03;6.82;;;3.28;;
28447;SDS011;15675;52.870;-1.416;2023-06-22T12:51:29;4.63;;;2.88;;
28447;SDS011;15675;52.870;-1.416;2023-06-22T12:53:55;6.30;;;3.20;;
28447;SDS011;15675;52.870;-1.416;2023-06-22T12:56:21;8.02;;;3.75;;
28447;SDS011;15675;52.870;-1.416;2023-06-22T12:58:47;7.63;;;4.18;;
28447;SDS011;15675;52.870;-1.416;2023-06-22T13:01:12;7.97;;;3.80;;
28447;SDS011;15675;52.870;-1.416;2023-06-22T13:03:38;6.70;;;3.58;;
28447;SDS011;15675;52.870;-1.416;2023-06-22T13:06:04;8.55;;;3.83;;
28447;SDS011;15675;52.870;-1.416;2023-06-22T13:08:29;7.05;;;4.32;;
28447;SDS011;15675;52.870;-1.416;2023-06-22T13:10:55;8.23;;;4.05;;
28447;SDS011;15675;52.870;-1.416;2023-06-22T13:13:25;8.10;;;4.10;;
28447;SDS011;15675;52.870;-1.416;2023-06-22T13:15:52;10.73;;;5.03;;
28447;SDS011;15675;52.870;-1.416;2023-06-22T13:18:17;8.65;;;4.32;;
28447;SDS011;15675;52.870;-1.416;2023-06-22T13:20:43;8.77;;;4.10;;
28447;SDS011;15675;52.870;-1.416;2023-06-22T13:23:10;7.30;;;4.53;;
28447;SDS011;15675;52.870;-1.416;2023-06-22T13:25:36;10.65;;;4.05;;
28447;SDS011;15675;52.870;-1.416;2023-06-22T13:28:02;7.82;;;4.55;;
28447;SDS011;15675;52.870;-1.416;2023-06-22T13:30:27;7.50;;;4.13;;
28447;SDS011;15675;52.870;-1.416;2023-06-22T13:32:53;5.22;;;3.95;;
28447;SDS011;15675;52.870;-1.416;2023-06-22T13:35:18;13.00;;;4.53;;
28447;SDS011;15675;52.870;-1.416;2023-06-22T13:37:44;6.15;;;4.18;;
28447;SDS011;15675;52.870;-1.416;2023-06-22T13:40:09;10.07;;;3.80;;
28447;SDS011;15675;52.870;-1.416;2023-06-22T13:42:35;6.82;;;4.03;;
28447;SDS011;15675;52.870;-1.416;2023-06-22T13:45:01;6.53;;;3.92;;
28447;SDS011;15675;52.870;-1.416;2023-06-22T13:47:27;8.60;;;3.60;;
28447;SDS011;15675;52.870;-1.416;2023-06-22T13:49:54;5.88;;;3.55;;
28447;SDS011;15675;52.870;-1.416;2023-06-22T13:52:20;7.18;;;3.72;;
28447;SDS011;15675;52.870;-1.416;2023-06-22T13:54:45;6.07;;;3.67;;
28447;SDS011;15675;52.870;-1.416;2023-06-22T13:57:11;7.00;;;4.30;;
28447;SDS011;15675;52.870;-1.416;2023-06-22T13:59:37;6.40;;;4.13;;
28447;SDS011;15675;52.870;-1.416;2023-06-22T14:02:02;8.75;;;4.95;;
28447;SDS011;15675;52.870;-1.416;2023-06-22T14:04:28;9.23;;;4.60;;
28447;SDS011;15675;52.870;-1.416;2023-06-22T14:06:54;8.20;;;4.55;;
28447;SDS011;15675;52.870;-1.416;2023-06-22T14:09:20;8.77;;;4.03;;
28447;SDS011;15675;52.870;-1.416;2023-06-22T14:11:46;7.68;;;4.60;;
28447;SDS011;15675;52.870;-1.416;2023-06-22T14:14:12;7.45;;;4.55;;
28447;SDS011;15675;52.870;-1.416;2023-06-22T14:16:37;5.40;;;3.60;;
28447;SDS011;15675;52.870;-1.416;2023-06-22T14:19:03;5.97;;;4.25;;
28447;SDS011;15675;52.870;-1.416;2023-06-22T14:21:28;6.35;;;3.67;;
28447;SDS011;15675;52.870;-1.416;2023-06-22T14:23:54;7.30;;;3.90;;
28447;SDS011;15675;52.870;-1.416;2023-06-22T14:26:20;6.55;;;3.92;;
28447;SDS011;15675;52.870;-1.416;2023-06-22T14:28:49;5.25;;;3.85;;
28447;SDS011;15675;52.870;-1.416;2023-06-22T14:31:17;9.15;;;4.07;;
28447;SDS011;15675;52.870;-1.416;2023-06-22T14:33:45;6.03;;;4.07;;
28447;SDS011;15675;52.870;-1.416;2023-06-22T14:36:12;5.40;;;4.05;;